Home > Products > Valid Products > TAF

000
FTUS43 KOAX 290520
TAFLNK
TAF
KLNK 290520Z 2906/3006 16010KT P6SM BKN090
     FM290700 15007KT P6SM -SHRA OVC040
      TEMPO 2909/2912 5SM -TSRA BR OVC025CB
     FM291500 22010KT P6SM BKN040
     FM292000 32014KT P6SM -SHRA OVC040
     FM300200 34010KT P6SM BKN050=



000
FTUS43 KOAX 290520
TAFOMA
TAF
KOMA 290520Z 2906/3006 16008KT P6SM BKN090
     FM291000 15007KT P6SM -SHRA OVC040
      TEMPO 2912/2915 5SM -TSRA BR OVC025CB
     FM291600 22010KT P6SM BKN040
     FM292100 32014KT P6SM -SHRA OVC040
     FM300200 24011KT P6SM BKN050=



000
FTUS43 KOAX 290520
TAFOMA
TAF
KOMA 290520Z 2906/3006 16008KT P6SM BKN090
     FM291000 15007KT P6SM -SHRA OVC040
      TEMPO 2912/2915 5SM -TSRA BR OVC025CB
     FM291600 22010KT P6SM BKN040
     FM292100 32014KT P6SM -SHRA OVC040
     FM300200 24011KT P6SM BKN050=



000
FTUS43 KOAX 290520
TAFOFK
TAF
KOFK 290520Z 2906/3006 17009KT P6SM OVC120
      TEMPO 2907/2910 6SM -SHRA OVC040
     FM291200 22010KT P6SM OVC040
     FM291800 32014G22KT P6SM -SHRA OVC040
     FM300100 35010KT P6SM BKN090=



000
FTUS43 KOAX 290520
TAFLNK
TAF
KLNK 290520Z 2906/3006 16010KT P6SM BKN090
     FM290700 15007KT P6SM -SHRA OVC040
      TEMPO 2909/2912 5SM -TSRA BR OVC025CB
     FM291500 22010KT P6SM BKN040
     FM292000 32014KT P6SM -SHRA OVC040
     FM300200 34010KT P6SM BKN050=



000
FTUS43 KOAX 290520
TAFOFK
TAF
KOFK 290520Z 2906/3006 17009KT P6SM OVC120
      TEMPO 2907/2910 6SM -SHRA OVC040
     FM291200 22010KT P6SM OVC040
     FM291800 32014G22KT P6SM -SHRA OVC040
     FM300100 35010KT P6SM BKN090=



000
FTUS43 KOAX 290520
TAFOFK
TAF
KOFK 290520Z 2906/3006 17009KT P6SM OVC120
      TEMPO 2907/2910 6SM -SHRA OVC040
     FM291200 22010KT P6SM OVC040
     FM291800 32014G22KT P6SM -SHRA OVC040
     FM300100 35010KT P6SM BKN090=



000
FTUS43 KOAX 290520
TAFLNK
TAF
KLNK 290520Z 2906/3006 16010KT P6SM BKN090
     FM290700 15007KT P6SM -SHRA OVC040
      TEMPO 2909/2912 5SM -TSRA BR OVC025CB
     FM291500 22010KT P6SM BKN040
     FM292000 32014KT P6SM -SHRA OVC040
     FM300200 34010KT P6SM BKN050=



000
FTUS43 KOAX 290520
TAFOMA
TAF
KOMA 290520Z 2906/3006 16008KT P6SM BKN090
     FM291000 15007KT P6SM -SHRA OVC040
      TEMPO 2912/2915 5SM -TSRA BR OVC025CB
     FM291600 22010KT P6SM BKN040
     FM292100 32014KT P6SM -SHRA OVC040
     FM300200 24011KT P6SM BKN050=



000
FTUS43 KOAX 290520
TAFOMA
TAF
KOMA 290520Z 2906/3006 16008KT P6SM BKN090
     FM291000 15007KT P6SM -SHRA OVC040
      TEMPO 2912/2915 5SM -TSRA BR OVC025CB
     FM291600 22010KT P6SM BKN040
     FM292100 32014KT P6SM -SHRA OVC040
     FM300200 24011KT P6SM BKN050=



000
FTUS43 KOAX 290520
TAFLNK
TAF
KLNK 290520Z 2906/3006 16010KT P6SM BKN090
     FM290700 15007KT P6SM -SHRA OVC040
      TEMPO 2909/2912 5SM -TSRA BR OVC025CB
     FM291500 22010KT P6SM BKN040
     FM292000 32014KT P6SM -SHRA OVC040
     FM300200 34010KT P6SM BKN050=



000
FTUS43 KOAX 290520
TAFOFK
TAF
KOFK 290520Z 2906/3006 17009KT P6SM OVC120
      TEMPO 2907/2910 6SM -SHRA OVC040
     FM291200 22010KT P6SM OVC040
     FM291800 32014G22KT P6SM -SHRA OVC040
     FM300100 35010KT P6SM BKN090=



000
FTUS43 KOAX 282329
TAFOMA
TAF
KOMA 282329Z 2900/2924 16011KT P6SM BKN025 BKN120
     FM290300 15011KT P6SM SCT040 BKN090
     FM291000 15007KT P6SM -SHRA OVC040
      TEMPO 2912/2915 5SM -TSRA BR OVC025CB
     FM291600 22010KT P6SM BKN040
     FM292100 32014KT P6SM -SHRA BKN040=



000
FTUS43 KOAX 282329
TAFLNK
TAF
KLNK 282329Z 2900/2924 16011KT P6SM SCT025 BKN120
     FM290900 15007KT P6SM -SHRA OVC040
      TEMPO 2911/2914 5SM -TSRA BR OVC025CB
     FM291500 22010KT P6SM BKN040
     FM292000 32014KT P6SM -SHRA BKN040=



000
FTUS43 KOAX 282329
TAFOFK
TAF
KOFK 282329Z 2900/2924 14011KT P6SM SCT025 BKN100
      TEMPO 2907/2910 6SM -SHRA OVC025
     FM291100 22010KT P6SM OVC040
     FM291600 32014KT P6SM BKN040
      TEMPO 2918/2921 -SHRA=



000
FTUS43 KOAX 282329
TAFOMA
TAF
KOMA 282329Z 2900/2924 16011KT P6SM BKN025 BKN120
     FM290300 15011KT P6SM SCT040 BKN090
     FM291000 15007KT P6SM -SHRA OVC040
      TEMPO 2912/2915 5SM -TSRA BR OVC025CB
     FM291600 22010KT P6SM BKN040
     FM292100 32014KT P6SM -SHRA BKN040=



000
FTUS43 KOAX 282329
TAFLNK
TAF
KLNK 282329Z 2900/2924 16011KT P6SM SCT025 BKN120
     FM290900 15007KT P6SM -SHRA OVC040
      TEMPO 2911/2914 5SM -TSRA BR OVC025CB
     FM291500 22010KT P6SM BKN040
     FM292000 32014KT P6SM -SHRA BKN040=



000
FTUS43 KOAX 282329
TAFLNK
TAF
KLNK 282329Z 2900/2924 16011KT P6SM SCT025 BKN120
     FM290900 15007KT P6SM -SHRA OVC040
      TEMPO 2911/2914 5SM -TSRA BR OVC025CB
     FM291500 22010KT P6SM BKN040
     FM292000 32014KT P6SM -SHRA BKN040=



000
FTUS43 KOAX 282329
TAFOFK
TAF
KOFK 282329Z 2900/2924 14011KT P6SM SCT025 BKN100
      TEMPO 2907/2910 6SM -SHRA OVC025
     FM291100 22010KT P6SM OVC040
     FM291600 32014KT P6SM BKN040
      TEMPO 2918/2921 -SHRA=



000
FTUS43 KOAX 282329
TAFOMA
TAF
KOMA 282329Z 2900/2924 16011KT P6SM BKN025 BKN120
     FM290300 15011KT P6SM SCT040 BKN090
     FM291000 15007KT P6SM -SHRA OVC040
      TEMPO 2912/2915 5SM -TSRA BR OVC025CB
     FM291600 22010KT P6SM BKN040
     FM292100 32014KT P6SM -SHRA BKN040=



000
FTUS43 KOAX 282329
TAFOMA
TAF
KOMA 282329Z 2900/2924 16011KT P6SM BKN025 BKN120
     FM290300 15011KT P6SM SCT040 BKN090
     FM291000 15007KT P6SM -SHRA OVC040
      TEMPO 2912/2915 5SM -TSRA BR OVC025CB
     FM291600 22010KT P6SM BKN040
     FM292100 32014KT P6SM -SHRA BKN040=



000
FTUS43 KOAX 282329
TAFOFK
TAF
KOFK 282329Z 2900/2924 14011KT P6SM SCT025 BKN100
      TEMPO 2907/2910 6SM -SHRA OVC025
     FM291100 22010KT P6SM OVC040
     FM291600 32014KT P6SM BKN040
      TEMPO 2918/2921 -SHRA=



000
FTUS43 KOAX 282329
TAFLNK
TAF
KLNK 282329Z 2900/2924 16011KT P6SM SCT025 BKN120
     FM290900 15007KT P6SM -SHRA OVC040
      TEMPO 2911/2914 5SM -TSRA BR OVC025CB
     FM291500 22010KT P6SM BKN040
     FM292000 32014KT P6SM -SHRA BKN040=



000
FTUS43 KOAX 282329
TAFOFK
TAF
KOFK 282329Z 2900/2924 14011KT P6SM SCT025 BKN100
      TEMPO 2907/2910 6SM -SHRA OVC025
     FM291100 22010KT P6SM OVC040
     FM291600 32014KT P6SM BKN040
      TEMPO 2918/2921 -SHRA=



000
FTUS43 KOAX 282320 AAB
TAFOMA
TAF AMD
KOMA 282320Z 2823/2918 16011KT P6SM BKN025 BKN120
     FM290300 15011KT P6SM SCT040 BKN090
     FM291000 15007KT P6SM -SHRA OVC040
      TEMPO 2912/2915 5SM -TSRA BR OVC025CB
     FM291600 22010KT P6SM BKN040=



000
FTUS43 KOAX 282320 AAB
TAFOMA
TAF AMD
KOMA 282320Z 2823/2918 16011KT P6SM BKN025 BKN120
     FM290300 15011KT P6SM SCT040 BKN090
     FM291000 15007KT P6SM -SHRA OVC040
      TEMPO 2912/2915 5SM -TSRA BR OVC025CB
     FM291600 22010KT P6SM BKN040=



000
FTUS43 KOAX 282320 AAB
TAFOMA
TAF AMD
KOMA 282320Z 2823/2918 16011KT P6SM BKN025 BKN120
     FM290300 15011KT P6SM SCT040 BKN090
     FM291000 15007KT P6SM -SHRA OVC040
      TEMPO 2912/2915 5SM -TSRA BR OVC025CB
     FM291600 22010KT P6SM BKN040=



000
FTUS43 KOAX 282320 AAB
TAFOMA
TAF AMD
KOMA 282320Z 2823/2918 16011KT P6SM BKN025 BKN120
     FM290300 15011KT P6SM SCT040 BKN090
     FM291000 15007KT P6SM -SHRA OVC040
      TEMPO 2912/2915 5SM -TSRA BR OVC025CB
     FM291600 22010KT P6SM BKN040=



000
FTUS43 KOAX 282106 AAA
TAFOMA
TAF AMD
KOMA 282106Z 2821/2918 16013KT P6SM VCSH SCT019 BKN030 OVC200
      TEMPO 2821/2822 P6SM -SHRA BKN019 OVC030
     FM282300 16014KT P6SM SCT040 BKN120
     FM291000 17005KT P6SM SCT040 BKN120
      TEMPO 2912/2915 4SM -TSRA BKN040CB
     FM291600 16007KT P6SM VCTS SCT040CB OVC250=



000
FTUS43 KOAX 282106 AAA
TAFOMA
TAF AMD
KOMA 282106Z 2821/2918 16013KT P6SM VCSH SCT019 BKN030 OVC200
      TEMPO 2821/2822 P6SM -SHRA BKN019 OVC030
     FM282300 16014KT P6SM SCT040 BKN120
     FM291000 17005KT P6SM SCT040 BKN120
      TEMPO 2912/2915 4SM -TSRA BKN040CB
     FM291600 16007KT P6SM VCTS SCT040CB OVC250=



000
FTUS43 KOAX 282106 AAA
TAFOMA
TAF AMD
KOMA 282106Z 2821/2918 16013KT P6SM VCSH SCT019 BKN030 OVC200
      TEMPO 2821/2822 P6SM -SHRA BKN019 OVC030
     FM282300 16014KT P6SM SCT040 BKN120
     FM291000 17005KT P6SM SCT040 BKN120
      TEMPO 2912/2915 4SM -TSRA BKN040CB
     FM291600 16007KT P6SM VCTS SCT040CB OVC250=



000
FTUS43 KOAX 282106 AAA
TAFOMA
TAF AMD
KOMA 282106Z 2821/2918 16013KT P6SM VCSH SCT019 BKN030 OVC200
      TEMPO 2821/2822 P6SM -SHRA BKN019 OVC030
     FM282300 16014KT P6SM SCT040 BKN120
     FM291000 17005KT P6SM SCT040 BKN120
      TEMPO 2912/2915 4SM -TSRA BKN040CB
     FM291600 16007KT P6SM VCTS SCT040CB OVC250=



000
FTUS43 KOAX 282025 AAA
TAFOFK
TAF AMD
KOFK 282025Z 2820/2918 14014KT P6SM SCT040 BKN250
     FM290000 17008KT P6SM BKN060
      TEMPO 2907/2910 5SM -SHRA OVC050
     FM291200 26005KT P6SM OVC100
     FM291500 31008KT P6SM BKN100 OVC250=



000
FTUS43 KOAX 282025 AAA
TAFOFK
TAF AMD
KOFK 282025Z 2820/2918 14014KT P6SM SCT040 BKN250
     FM290000 17008KT P6SM BKN060
      TEMPO 2907/2910 5SM -SHRA OVC050
     FM291200 26005KT P6SM OVC100
     FM291500 31008KT P6SM BKN100 OVC250=



000
FTUS43 KOAX 281722
TAFLNK
TAF
KLNK 281722Z 2818/2918 16014KT P6SM VCSH SCT040 BKN100
      TEMPO 2818/2822 P6SM -SHRA BKN040 OVC100
     FM282300 17007KT P6SM SCT040 BKN100
      TEMPO 2906/2909 P6SM -SHRA OVC100
     FM291200 10005KT P6SM VCTS SCT040CB BKN100
      TEMPO 2912/2914 5SM -TSRA OVC040CB
     FM291500 16006KT P6SM VCSH BKN050 OVC250=



000
FTUS43 KOAX 281722
TAFOMA
TAF
KOMA 281722Z 2818/2918 16013KT P6SM VCSH SCT100 OVC200
     FM282300 16014KT P6SM SCT040 BKN120
     FM291000 17005KT P6SM SCT040 BKN120
      TEMPO 2912/2915 4SM -TSRA BKN040CB
     FM291600 16007KT P6SM VCTS SCT040CB OVC250=



000
FTUS43 KOAX 281722
TAFLNK
TAF
KLNK 281722Z 2818/2918 16014KT P6SM VCSH SCT040 BKN100
      TEMPO 2818/2822 P6SM -SHRA BKN040 OVC100
     FM282300 17007KT P6SM SCT040 BKN100
      TEMPO 2906/2909 P6SM -SHRA OVC100
     FM291200 10005KT P6SM VCTS SCT040CB BKN100
      TEMPO 2912/2914 5SM -TSRA OVC040CB
     FM291500 16006KT P6SM VCSH BKN050 OVC250=



000
FTUS43 KOAX 281722
TAFOMA
TAF
KOMA 281722Z 2818/2918 16013KT P6SM VCSH SCT100 OVC200
     FM282300 16014KT P6SM SCT040 BKN120
     FM291000 17005KT P6SM SCT040 BKN120
      TEMPO 2912/2915 4SM -TSRA BKN040CB
     FM291600 16007KT P6SM VCTS SCT040CB OVC250=



000
FTUS43 KOAX 281722
TAFOFK
TAF
KOFK 281722Z 2818/2918 17013KT P6SM SCT150 BKN250
     FM290000 17008KT P6SM BKN060
      TEMPO 2907/2910 5SM -SHRA OVC050
     FM291200 26005KT P6SM OVC100
     FM291500 31008KT P6SM BKN100 OVC250=



000
FTUS43 KOAX 281722
TAFOFK
TAF
KOFK 281722Z 2818/2918 17013KT P6SM SCT150 BKN250
     FM290000 17008KT P6SM BKN060
      TEMPO 2907/2910 5SM -SHRA OVC050
     FM291200 26005KT P6SM OVC100
     FM291500 31008KT P6SM BKN100 OVC250=



000
FTUS43 KOAX 281722
TAFLNK
TAF
KLNK 281722Z 2818/2918 16014KT P6SM VCSH SCT040 BKN100
      TEMPO 2818/2822 P6SM -SHRA BKN040 OVC100
     FM282300 17007KT P6SM SCT040 BKN100
      TEMPO 2906/2909 P6SM -SHRA OVC100
     FM291200 10005KT P6SM VCTS SCT040CB BKN100
      TEMPO 2912/2914 5SM -TSRA OVC040CB
     FM291500 16006KT P6SM VCSH BKN050 OVC250=



000
FTUS43 KOAX 281722
TAFOFK
TAF
KOFK 281722Z 2818/2918 17013KT P6SM SCT150 BKN250
     FM290000 17008KT P6SM BKN060
      TEMPO 2907/2910 5SM -SHRA OVC050
     FM291200 26005KT P6SM OVC100
     FM291500 31008KT P6SM BKN100 OVC250=



000
FTUS43 KOAX 281722
TAFOFK
TAF
KOFK 281722Z 2818/2918 17013KT P6SM SCT150 BKN250
     FM290000 17008KT P6SM BKN060
      TEMPO 2907/2910 5SM -SHRA OVC050
     FM291200 26005KT P6SM OVC100
     FM291500 31008KT P6SM BKN100 OVC250=



000
FTUS43 KOAX 281722
TAFLNK
TAF
KLNK 281722Z 2818/2918 16014KT P6SM VCSH SCT040 BKN100
      TEMPO 2818/2822 P6SM -SHRA BKN040 OVC100
     FM282300 17007KT P6SM SCT040 BKN100
      TEMPO 2906/2909 P6SM -SHRA OVC100
     FM291200 10005KT P6SM VCTS SCT040CB BKN100
      TEMPO 2912/2914 5SM -TSRA OVC040CB
     FM291500 16006KT P6SM VCSH BKN050 OVC250=



000
FTUS43 KOAX 281722
TAFOMA
TAF
KOMA 281722Z 2818/2918 16013KT P6SM VCSH SCT100 OVC200
     FM282300 16014KT P6SM SCT040 BKN120
     FM291000 17005KT P6SM SCT040 BKN120
      TEMPO 2912/2915 4SM -TSRA BKN040CB
     FM291600 16007KT P6SM VCTS SCT040CB OVC250=



000
FTUS43 KOAX 281722
TAFOMA
TAF
KOMA 281722Z 2818/2918 16013KT P6SM VCSH SCT100 OVC200
     FM282300 16014KT P6SM SCT040 BKN120
     FM291000 17005KT P6SM SCT040 BKN120
      TEMPO 2912/2915 4SM -TSRA BKN040CB
     FM291600 16007KT P6SM VCTS SCT040CB OVC250=



000
FTUS43 KOAX 281517 AAA
TAFOMA
TAF AMD
KOMA 281517Z 2815/2912 12003KT P6SM VCSH SCT140 OVC200
     FM282300 16014KT P6SM SCT040 BKN120=



000
FTUS43 KOAX 281517 AAA
TAFOMA
TAF AMD
KOMA 281517Z 2815/2912 12003KT P6SM VCSH SCT140 OVC200
     FM282300 16014KT P6SM SCT040 BKN120=



000
FTUS43 KOAX 281120
TAFOFK
TAF
KOFK 281120Z 2812/2912 16010KT P6SM BKN200
     FM281500 18013G20KT P6SM SCT040 BKN150
     FM290000 17008KT P6SM OVC060
     FM290600 18007KT 5SM -RA BKN050=



000
FTUS43 KOAX 281120
TAFLNK
TAF
KLNK 281120Z 2812/2912 18005KT P6SM -RA SCT050 OVC110
      TEMPO 2814/2818 5SM -TSRA BKN050CB
     FM281800 17014G23KT P6SM SCT040 BKN100
      TEMPO 2818/2822 5SM -RA BKN050
     FM282300 17014KT P6SM SCT040 BKN100=



000
FTUS43 KOAX 281120
TAFOMA
TAF
KOMA 281120Z 2812/2912 12003KT P6SM SCT140 OVC200
      TEMPO 2814/2818 5SM -RA BKN040
     FM282300 16014KT P6SM SCT040 BKN120=



000
FTUS43 KOAX 281120
TAFOMA
TAF
KOMA 281120Z 2812/2912 12003KT P6SM SCT140 OVC200
      TEMPO 2814/2818 5SM -RA BKN040
     FM282300 16014KT P6SM SCT040 BKN120=



000
FTUS43 KOAX 281120
TAFOFK
TAF
KOFK 281120Z 2812/2912 16010KT P6SM BKN200
     FM281500 18013G20KT P6SM SCT040 BKN150
     FM290000 17008KT P6SM OVC060
     FM290600 18007KT 5SM -RA BKN050=



000
FTUS43 KOAX 281120
TAFLNK
TAF
KLNK 281120Z 2812/2912 18005KT P6SM -RA SCT050 OVC110
      TEMPO 2814/2818 5SM -TSRA BKN050CB
     FM281800 17014G23KT P6SM SCT040 BKN100
      TEMPO 2818/2822 5SM -RA BKN050
     FM282300 17014KT P6SM SCT040 BKN100=



000
FTUS43 KOAX 281120
TAFLNK
TAF
KLNK 281120Z 2812/2912 18005KT P6SM -RA SCT050 OVC110
      TEMPO 2814/2818 5SM -TSRA BKN050CB
     FM281800 17014G23KT P6SM SCT040 BKN100
      TEMPO 2818/2822 5SM -RA BKN050
     FM282300 17014KT P6SM SCT040 BKN100=



000
FTUS43 KOAX 281120
TAFOMA
TAF
KOMA 281120Z 2812/2912 12003KT P6SM SCT140 OVC200
      TEMPO 2814/2818 5SM -RA BKN040
     FM282300 16014KT P6SM SCT040 BKN120=



000
FTUS43 KOAX 281120
TAFOFK
TAF
KOFK 281120Z 2812/2912 16010KT P6SM BKN200
     FM281500 18013G20KT P6SM SCT040 BKN150
     FM290000 17008KT P6SM OVC060
     FM290600 18007KT 5SM -RA BKN050=



000
FTUS43 KOAX 281120
TAFLNK
TAF
KLNK 281120Z 2812/2912 18005KT P6SM -RA SCT050 OVC110
      TEMPO 2814/2818 5SM -TSRA BKN050CB
     FM281800 17014G23KT P6SM SCT040 BKN100
      TEMPO 2818/2822 5SM -RA BKN050
     FM282300 17014KT P6SM SCT040 BKN100=



000
FTUS43 KOAX 281120
TAFOMA
TAF
KOMA 281120Z 2812/2912 12003KT P6SM SCT140 OVC200
      TEMPO 2814/2818 5SM -RA BKN040
     FM282300 16014KT P6SM SCT040 BKN120=



000
FTUS43 KOAX 280935 AAA
TAFLNK
TAF AMD
KLNK 280935Z 2810/2906 16007KT P6SM SCT100 OVC250
      TEMPO 2810/2813 5SM -TSRA BKN050CB
     FM281300 16009KT P6SM SCT040 OVC100
      TEMPO 2814/2818 4SM TSRA BKN040CB
     FM281800 17014G23KT P6SM SCT040 BKN100
     FM282300 17014KT P6SM SCT040 BKN100=



000
FTUS43 KOAX 280935 AAA
TAFLNK
TAF AMD
KLNK 280935Z 2810/2906 16007KT P6SM SCT100 OVC250
      TEMPO 2810/2813 5SM -TSRA BKN050CB
     FM281300 16009KT P6SM SCT040 OVC100
      TEMPO 2814/2818 4SM TSRA BKN040CB
     FM281800 17014G23KT P6SM SCT040 BKN100
     FM282300 17014KT P6SM SCT040 BKN100=



000
FTUS43 KOAX 280520
TAFOMA
TAF
KOMA 280520Z 2806/2906 15006KT P6SM SCT100 OVC250
     FM281200 16012KT P6SM SCT040 BKN150
      TEMPO 2816/2820 5SM -TSRA BKN040CB
     FM282300 16014KT P6SM SCT040 BKN120=



000
FTUS43 KOAX 280520
TAFOFK
TAF
KOFK 280520Z 2806/2906 16008KT P6SM SCT100 OVC250
     FM281500 18013G20KT P6SM SCT040 BKN150 PROB30 2819/2824 5SM
      -TSRA BKN040CB
     FM290000 17008KT P6SM OVC060=



000
FTUS43 KOAX 280520
TAFOMA
TAF
KOMA 280520Z 2806/2906 15006KT P6SM SCT100 OVC250
     FM281200 16012KT P6SM SCT040 BKN150
      TEMPO 2816/2820 5SM -TSRA BKN040CB
     FM282300 16014KT P6SM SCT040 BKN120=



000
FTUS43 KOAX 280520
TAFLNK
TAF
KLNK 280520Z 2806/2906 16007KT P6SM SCT100 OVC250
     FM281300 16009KT P6SM SCT040 OVC100
      TEMPO 2814/2818 4SM TSRA BKN040CB
     FM281800 17014G23KT P6SM SCT040 BKN100
     FM282300 17014KT P6SM SCT040 BKN100=



000
FTUS43 KOAX 280520
TAFLNK
TAF
KLNK 280520Z 2806/2906 16007KT P6SM SCT100 OVC250
     FM281300 16009KT P6SM SCT040 OVC100
      TEMPO 2814/2818 4SM TSRA BKN040CB
     FM281800 17014G23KT P6SM SCT040 BKN100
     FM282300 17014KT P6SM SCT040 BKN100=



000
FTUS43 KOAX 280520
TAFOFK
TAF
KOFK 280520Z 2806/2906 16008KT P6SM SCT100 OVC250
     FM281500 18013G20KT P6SM SCT040 BKN150 PROB30 2819/2824 5SM
      -TSRA BKN040CB
     FM290000 17008KT P6SM OVC060=



000
FTUS43 KOAX 272320
TAFOMA
TAF
KOMA 272320Z 2800/2824 17006KT P6SM SCT070 BKN250
     FM281200 16009KT P6SM SCT040 BKN100 PROB30 2814/2818 3SM TSRA
      BKN040CB
     FM281800 16015G23KT P6SM SCT040 BKN100=



000
FTUS43 KOAX 272320
TAFLNK
TAF
KLNK 272320Z 2800/2824 15007KT P6SM SCT070 SCT250
     FM280600 17008KT P6SM SCT060 BKN150 PROB30 2810/2816 3SM TSRA
      BKN040CB
     FM281600 17014G23KT P6SM SCT040 BKN100=



000
FTUS43 KOAX 272320
TAFOFK
TAF
KOFK 272320Z 2800/2824 17006KT P6SM SCT250
     FM280500 17009KT P6SM SCT050 BKN150 PROB30 2810/2815 3SM TSRA
      BKN040CB
     FM281500 17013KT P6SM SCT040 BKN100=



000
FTUS43 KOAX 272320
TAFOMA
TAF
KOMA 272320Z 2800/2824 17006KT P6SM SCT070 BKN250
     FM281200 16009KT P6SM SCT040 BKN100 PROB30 2814/2818 3SM TSRA
      BKN040CB
     FM281800 16015G23KT P6SM SCT040 BKN100=



000
FTUS43 KOAX 272320
TAFOMA
TAF
KOMA 272320Z 2800/2824 17006KT P6SM SCT070 BKN250
     FM281200 16009KT P6SM SCT040 BKN100 PROB30 2814/2818 3SM TSRA
      BKN040CB
     FM281800 16015G23KT P6SM SCT040 BKN100=



000
FTUS43 KOAX 272320
TAFOFK
TAF
KOFK 272320Z 2800/2824 17006KT P6SM SCT250
     FM280500 17009KT P6SM SCT050 BKN150 PROB30 2810/2815 3SM TSRA
      BKN040CB
     FM281500 17013KT P6SM SCT040 BKN100=



000
FTUS43 KOAX 272320
TAFLNK
TAF
KLNK 272320Z 2800/2824 15007KT P6SM SCT070 SCT250
     FM280600 17008KT P6SM SCT060 BKN150 PROB30 2810/2816 3SM TSRA
      BKN040CB
     FM281600 17014G23KT P6SM SCT040 BKN100=



000
FTUS43 KOAX 272320
TAFLNK
TAF
KLNK 272320Z 2800/2824 15007KT P6SM SCT070 SCT250
     FM280600 17008KT P6SM SCT060 BKN150 PROB30 2810/2816 3SM TSRA
      BKN040CB
     FM281600 17014G23KT P6SM SCT040 BKN100=



000
FTUS43 KOAX 272320
TAFOFK
TAF
KOFK 272320Z 2800/2824 17006KT P6SM SCT250
     FM280500 17009KT P6SM SCT050 BKN150 PROB30 2810/2815 3SM TSRA
      BKN040CB
     FM281500 17013KT P6SM SCT040 BKN100=



000
FTUS43 KOAX 271724
TAFOMA
TAF
KOMA 271724Z 2718/2818 VRB04KT P6SM SKC
     FM280000 16005KT P6SM SCT150 BKN250
     FM281400 17014KT P6SM BKN100=



000
FTUS43 KOAX 271724
TAFLNK
TAF
KLNK 271724Z 2718/2818 18007KT P6SM SCT250
     FM280600 16010KT P6SM SCT100 BKN150
     FM281600 17013KT P6SM SCT040 BKN080=



000
FTUS43 KOAX 271724
TAFOFK
TAF
KOFK 271724Z 2718/2818 VRB04KT P6SM SCT250
     FM280500 17006KT P6SM SCT100 BKN150
     FM281400 17013KT P6SM SCT045 BKN100=



000
FTUS43 KOAX 271724
TAFLNK
TAF
KLNK 271724Z 2718/2818 18007KT P6SM SCT250
     FM280600 16010KT P6SM SCT100 BKN150
     FM281600 17013KT P6SM SCT040 BKN080=



000
FTUS43 KOAX 271724
TAFOMA
TAF
KOMA 271724Z 2718/2818 VRB04KT P6SM SKC
     FM280000 16005KT P6SM SCT150 BKN250
     FM281400 17014KT P6SM BKN100=



000
FTUS43 KOAX 271724
TAFOFK
TAF
KOFK 271724Z 2718/2818 VRB04KT P6SM SCT250
     FM280500 17006KT P6SM SCT100 BKN150
     FM281400 17013KT P6SM SCT045 BKN100=



000
FTUS43 KOAX 271120
TAFOFK
TAF
KOFK 271120Z 2712/2812 27005KT P6SM SCT250
     FM271700 22008KT P6SM SCT250
     FM280000 17006KT P6SM BKN100=



000
FTUS43 KOAX 271120
TAFOFK
TAF
KOFK 271120Z 2712/2812 27005KT P6SM SCT250
     FM271700 22008KT P6SM SCT250
     FM280000 17006KT P6SM BKN100=



000
FTUS43 KOAX 271120
TAFOFK
TAF
KOFK 271120Z 2712/2812 27005KT P6SM SCT250
     FM271700 22008KT P6SM SCT250
     FM280000 17006KT P6SM BKN100=



000
FTUS43 KOAX 271120
TAFOMA
TAF
KOMA 271120Z 2712/2812 VRB04KT P6SM SCT250
      TEMPO 2712/2714 5SM BR
     FM271800 20008KT P6SM SCT250
     FM280000 16005KT P6SM BKN250=



000
FTUS43 KOAX 271120
TAFOFK
TAF
KOFK 271120Z 2712/2812 27005KT P6SM SCT250
     FM271700 22008KT P6SM SCT250
     FM280000 17006KT P6SM BKN100=



000
FTUS43 KOAX 271120
TAFOMA
TAF
KOMA 271120Z 2712/2812 VRB04KT P6SM SCT250
      TEMPO 2712/2714 5SM BR
     FM271800 20008KT P6SM SCT250
     FM280000 16005KT P6SM BKN250=



000
FTUS43 KOAX 271120
TAFOMA
TAF
KOMA 271120Z 2712/2812 VRB04KT P6SM SCT250
      TEMPO 2712/2714 5SM BR
     FM271800 20008KT P6SM SCT250
     FM280000 16005KT P6SM BKN250=



000
FTUS43 KOAX 271120
TAFLNK
TAF
KLNK 271120Z 2712/2812 VRB04KT P6SM SCT250
     FM271800 20007KT P6SM SCT250
     FM280000 16005KT P6SM BKN100
     FM280600 16010KT P6SM BKN050=



000
FTUS43 KOAX 271120
TAFLNK
TAF
KLNK 271120Z 2712/2812 VRB04KT P6SM SCT250
     FM271800 20007KT P6SM SCT250
     FM280000 16005KT P6SM BKN100
     FM280600 16010KT P6SM BKN050=



000
FTUS43 KOAX 271120
TAFLNK
TAF
KLNK 271120Z 2712/2812 VRB04KT P6SM SCT250
     FM271800 20007KT P6SM SCT250
     FM280000 16005KT P6SM BKN100
     FM280600 16010KT P6SM BKN050=



000
FTUS43 KOAX 271120
TAFOMA
TAF
KOMA 271120Z 2712/2812 VRB04KT P6SM SCT250
      TEMPO 2712/2714 5SM BR
     FM271800 20008KT P6SM SCT250
     FM280000 16005KT P6SM BKN250=



000
FTUS43 KOAX 270520
TAFOFK
TAF
KOFK 270520Z 2706/2806 25005KT P6SM SCT250
     FM271700 20008KT P6SM SCT250
     FM280000 17006KT P6SM BKN250=



000
FTUS43 KOAX 270520
TAFOMA
TAF
KOMA 270520Z 2706/2806 VRB03KT P6SM SCT250
     FM271800 21008KT P6SM SCT250
     FM280000 16005KT P6SM BKN250=



000
FTUS43 KOAX 270520
TAFLNK
TAF
KLNK 270520Z 2706/2806 VRB03KT P6SM SCT250
     FM271800 20007KT P6SM SCT250
     FM280000 16005KT P6SM BKN250=



000
FTUS43 KOAX 262320
TAFOMA
TAF
KOMA 262320Z 2700/2724 32008KT P6SM SCT040 BKN080
     FM270200 30006KT P6SM SCT100
     FM271800 22006KT P6SM SCT250=



000
FTUS43 KOAX 262320
TAFOMA
TAF
KOMA 262320Z 2700/2724 32008KT P6SM SCT040 BKN080
     FM270200 30006KT P6SM SCT100
     FM271800 22006KT P6SM SCT250=



000
FTUS43 KOAX 262320
TAFOFK
TAF
KOFK 262320Z 2700/2724 33008KT P6SM BKN080
     FM270200 29006KT P6SM SCT100
     FM271700 21008KT P6SM SCT250=



000
FTUS43 KOAX 262320
TAFLNK
TAF
KLNK 262320Z 2700/2724 32008KT P6SM SCT040 BKN080
     FM270200 30005KT P6SM SCT100
     FM271800 20007KT P6SM SCT250=



000
FTUS43 KOAX 262320
TAFOFK
TAF
KOFK 262320Z 2700/2724 33008KT P6SM BKN080
     FM270200 29006KT P6SM SCT100
     FM271700 21008KT P6SM SCT250=



000
FTUS43 KOAX 262320
TAFLNK
TAF
KLNK 262320Z 2700/2724 32008KT P6SM SCT040 BKN080
     FM270200 30005KT P6SM SCT100
     FM271800 20007KT P6SM SCT250=



000
FTUS43 KOAX 262139 AAA
TAFOMA
TAF AMD
KOMA 262139Z 2622/2718 32012KT P6SM SCT015 OVC025
      TEMPO 2622/2701 BKN015
     FM270100 33007KT P6SM SCT025 BKN040
     FM270500 33006KT P6SM SCT250=



000
FTUS43 KOAX 262139 AAA
TAFOMA
TAF AMD
KOMA 262139Z 2622/2718 32012KT P6SM SCT015 OVC025
      TEMPO 2622/2701 BKN015
     FM270100 33007KT P6SM SCT025 BKN040
     FM270500 33006KT P6SM SCT250=



000
FTUS43 KOAX 261720
TAFOMA
TAF
KOMA 261720Z 2618/2718 27006KT P6SM VCSH BKN020
     FM262000 31007KT P6SM SCT025 BKN040
     FM270500 33006KT P6SM SCT250=



000
FTUS43 KOAX 261720
TAFOFK
TAF
KOFK 261720Z 2618/2718 32012KT P6SM SCT009 BKN015
      TEMPO 2618/2619 -RA
     FM261930 35012KT P6SM SCT015 BKN040
     FM262300 34008KT P6SM SCT045
     FM270300 25006KT P6SM SCT250=



000
FTUS43 KOAX 261720
TAFLNK
TAF
KLNK 261720Z 2618/2718 32011KT P6SM SCT020 BKN040
      TEMPO 2618/2620 6SM -RA BKN025
     FM270300 33006KT P6SM SCT250=



000
FTUS43 KOAX 261720
TAFLNK
TAF
KLNK 261720Z 2618/2718 32011KT P6SM SCT020 BKN040
      TEMPO 2618/2620 6SM -RA BKN025
     FM270300 33006KT P6SM SCT250=



000
FTUS43 KOAX 261720
TAFOFK
TAF
KOFK 261720Z 2618/2718 32012KT P6SM SCT009 BKN015
      TEMPO 2618/2619 -RA
     FM261930 35012KT P6SM SCT015 BKN040
     FM262300 34008KT P6SM SCT045
     FM270300 25006KT P6SM SCT250=



000
FTUS43 KOAX 261720
TAFOMA
TAF
KOMA 261720Z 2618/2718 27006KT P6SM VCSH BKN020
     FM262000 31007KT P6SM SCT025 BKN040
     FM270500 33006KT P6SM SCT250=



000
FTUS43 KOAX 261720
TAFOFK
TAF
KOFK 261720Z 2618/2718 32012KT P6SM SCT009 BKN015
      TEMPO 2618/2619 -RA
     FM261930 35012KT P6SM SCT015 BKN040
     FM262300 34008KT P6SM SCT045
     FM270300 25006KT P6SM SCT250=



000
FTUS43 KOAX 261720
TAFOMA
TAF
KOMA 261720Z 2618/2718 27006KT P6SM VCSH BKN020
     FM262000 31007KT P6SM SCT025 BKN040
     FM270500 33006KT P6SM SCT250=



000
FTUS43 KOAX 261720
TAFLNK
TAF
KLNK 261720Z 2618/2718 32011KT P6SM SCT020 BKN040
      TEMPO 2618/2620 6SM -RA BKN025
     FM270300 33006KT P6SM SCT250=



000
FTUS43 KOAX 261720
TAFOMA
TAF
KOMA 261720Z 2618/2718 27006KT P6SM VCSH BKN020
     FM262000 31007KT P6SM SCT025 BKN040
     FM270500 33006KT P6SM SCT250=



000
FTUS43 KOAX 261720
TAFLNK
TAF
KLNK 261720Z 2618/2718 32011KT P6SM SCT020 BKN040
      TEMPO 2618/2620 6SM -RA BKN025
     FM270300 33006KT P6SM SCT250=



000
FTUS43 KOAX 261720
TAFOFK
TAF
KOFK 261720Z 2618/2718 32012KT P6SM SCT009 BKN015
      TEMPO 2618/2619 -RA
     FM261930 35012KT P6SM SCT015 BKN040
     FM262300 34008KT P6SM SCT045
     FM270300 25006KT P6SM SCT250=



000
FTUS43 KOAX 261609 AAB
TAFOFK
TAF AMD
KOFK 261609Z 2616/2712 32011KT P6SM BKN007 OVC015
      TEMPO 2616/2618 -RA
     FM261800 35010KT P6SM BKN015 OVC040
     FM262000 34013KT P6SM BKN040
     FM270100 33005KT P6SM SCT090=



000
FTUS43 KOAX 261609 AAB
TAFOFK
TAF AMD
KOFK 261609Z 2616/2712 32011KT P6SM BKN007 OVC015
      TEMPO 2616/2618 -RA
     FM261800 35010KT P6SM BKN015 OVC040
     FM262000 34013KT P6SM BKN040
     FM270100 33005KT P6SM SCT090=



000
FTUS43 KOAX 261607 AAD
TAFLNK
TAF AMD
KLNK 261607Z 2616/2712 32007KT P6SM BKN015 OVC040
     FM261900 31013KT P6SM SCT015 BKN040
     FM270100 33006KT P6SM BKN250=



000
FTUS43 KOAX 261605 AAA
TAFOMA
TAF AMD
KOMA 261605Z 2616/2712 27006KT P6SM VCSH FEW009 BKN015 OVC090
     FM261900 30007KT P6SM SCT015 BKN035
     FM270100 33006KT P6SM BKN040=



000
FTUS43 KOAX 261605 AAA
TAFOMA
TAF AMD
KOMA 261605Z 2616/2712 27006KT P6SM VCSH FEW009 BKN015 OVC090
     FM261900 30007KT P6SM SCT015 BKN035
     FM270100 33006KT P6SM BKN040=



000
FTUS43 KOAX 261417 AAC
TAFLNK
TAF AMD
KLNK 261417Z 2614/2712 VRB04KT P6SM OVC012
      TEMPO 2614/2616 -RA
     FM261600 31013KT P6SM BKN090
     FM270100 33006KT P6SM BKN250=



000
FTUS43 KOAX 261417 AAC
TAFLNK
TAF AMD
KLNK 261417Z 2614/2712 VRB04KT P6SM OVC012
      TEMPO 2614/2616 -RA
     FM261600 31013KT P6SM BKN090
     FM270100 33006KT P6SM BKN250=



000
FTUS43 KOAX 261258 AAB
TAFLNK
TAF AMD
KLNK 261258Z 2613/2712 01003KT P6SM OVC014
      TEMPO 2613/2616 5SM -TSRA OVC015CB
     FM261600 31013KT P6SM BKN090
     FM270100 33006KT P6SM BKN250=



000
FTUS43 KOAX 261237 AAA
TAFLNK
TAF AMD
KLNK 261237Z 2613/2712 34005KT P6SM FEW015 BKN023 OVC060
      TEMPO 2613/2616 5SM -RA
     FM261600 31013KT P6SM BKN090
     FM270100 33006KT P6SM BKN250=



000
FTUS43 KOAX 261237 AAA
TAFLNK
TAF AMD
KLNK 261237Z 2613/2712 34005KT P6SM FEW015 BKN023 OVC060
      TEMPO 2613/2616 5SM -RA
     FM261600 31013KT P6SM BKN090
     FM270100 33006KT P6SM BKN250=



000
FTUS43 KOAX 261129 AAA
TAFOFK
TAF AMD
KOFK 261129Z 2611/2712 32003KT P6SM BKN005
      TEMPO 2612/2616 4SM -RA BKN012
     FM261600 35010KT P6SM BKN025
     FM262000 34013KT P6SM BKN040
     FM270100 33005KT P6SM SCT090=



000
FTUS43 KOAX 261129 AAA
TAFOFK
TAF AMD
KOFK 261129Z 2611/2712 32003KT P6SM BKN005
      TEMPO 2612/2616 4SM -RA BKN012
     FM261600 35010KT P6SM BKN025
     FM262000 34013KT P6SM BKN040
     FM270100 33005KT P6SM SCT090=



000
FTUS43 KOAX 261128
TAFOMA
TAF
KOMA 261128Z 2612/2712 15007KT P6SM BKN100
      TEMPO 2612/2616 4SM -RA BKN040
     FM261600 30010KT P6SM BKN100
      TEMPO 2616/2620 5SM -RA
     FM262000 32010KT P6SM BKN090
     FM270100 33006KT P6SM BKN040=



000
FTUS43 KOAX 261128
TAFLNK
TAF
KLNK 261128Z 2612/2712 19007KT P6SM BKN060
      TEMPO 2612/2616 5SM -RA
     FM261600 31013KT P6SM BKN090
     FM270100 33006KT P6SM BKN250=



000
FTUS43 KOAX 261128
TAFOFK
TAF
KOFK 261128Z 2612/2712 32003KT P6SM SCT090
      TEMPO 2612/2616 4SM -RA BKN012
     FM261600 35010KT P6SM BKN025
     FM262000 34013KT P6SM BKN040
     FM270100 33005KT P6SM SCT090=



000
FTUS43 KOAX 261128
TAFOFK
TAF
KOFK 261128Z 2612/2712 32003KT P6SM SCT090
      TEMPO 2612/2616 4SM -RA BKN012
     FM261600 35010KT P6SM BKN025
     FM262000 34013KT P6SM BKN040
     FM270100 33005KT P6SM SCT090=



000
FTUS43 KOAX 261128
TAFLNK
TAF
KLNK 261128Z 2612/2712 19007KT P6SM BKN060
      TEMPO 2612/2616 5SM -RA
     FM261600 31013KT P6SM BKN090
     FM270100 33006KT P6SM BKN250=



000
FTUS43 KOAX 261128
TAFOMA
TAF
KOMA 261128Z 2612/2712 15007KT P6SM BKN100
      TEMPO 2612/2616 4SM -RA BKN040
     FM261600 30010KT P6SM BKN100
      TEMPO 2616/2620 5SM -RA
     FM262000 32010KT P6SM BKN090
     FM270100 33006KT P6SM BKN040=



000
FTUS43 KOAX 261009 AAA
TAFOMA
TAF AMD
KOMA 261009Z 2610/2706 17010KT P6SM FEW012 BKN100 OVC120
      TEMPO 2610/2611 5SM -RA
     FM261100 16005KT P6SM OVC040
     FM261900 32010KT P6SM OVC040
     FM270100 33006KT P6SM BKN040=



000
FTUS43 KOAX 261009 AAA
TAFOMA
TAF AMD
KOMA 261009Z 2610/2706 17010KT P6SM FEW012 BKN100 OVC120
      TEMPO 2610/2611 5SM -RA
     FM261100 16005KT P6SM OVC040
     FM261900 32010KT P6SM OVC040
     FM270100 33006KT P6SM BKN040=



000
FTUS43 KOAX 261004 AAA
TAFLNK
TAF AMD
KLNK 261004Z 2610/2706 15010KT P6SM BKN028 OVC045
      TEMPO 2610/2611 5SM -TSRA BKN040CB
     FM261300 30007KT P6SM OVC090
     FM261700 31013KT P6SM BKN090
     FM270100 33006KT P6SM BKN250=



000
FTUS43 KOAX 261004 AAA
TAFLNK
TAF AMD
KLNK 261004Z 2610/2706 15010KT P6SM BKN028 OVC045
      TEMPO 2610/2611 5SM -TSRA BKN040CB
     FM261300 30007KT P6SM OVC090
     FM261700 31013KT P6SM BKN090
     FM270100 33006KT P6SM BKN250=



    US Dept of Commerce
    National Oceanic and Atmospheric Administration
    National Weather Service
    1325 East West Highway
    Silver Spring, MD 20910
    Page Author: NWS Internet Services Team
Disclaimer
Information Quality
Credits
Glossary
Privacy Policy
Freedom of Information Act (FOIA)
About Us
Career Opportunities